sensor_id;sensor_type;location;lat;lon;timestamp;P1;durP1;ratioP1;P2;durP2;ratioP2
11037;SDS011;5572;49.540;11.932;2024-02-04T07:03:25;0.47;;;0.47;;
11037;SDS011;5572;49.540;11.932;2024-02-04T09:21:36;2.07;;;1.27;;
11037;SDS011;5572;49.540;11.932;2024-02-04T09:24:10;0.40;;;0.40;;
11037;SDS011;5572;49.540;11.932;2024-02-04T09:26:41;0.50;;;0.50;;
11037;SDS011;5572;49.540;11.932;2024-02-04T09:29:09;0.57;;;0.57;;
11037;SDS011;5572;49.540;11.932;2024-02-04T09:31:38;0.30;;;0.30;;
11037;SDS011;5572;49.540;11.932;2024-02-04T09:34:07;0.80;;;0.80;;
11037;SDS011;5572;49.540;11.932;2024-02-04T09:36:38;0.40;;;0.40;;
11037;SDS011;5572;49.540;11.932;2024-02-04T09:39:06;0.33;;;0.33;;
11037;SDS011;5572;49.540;11.932;2024-02-04T09:41:34;0.40;;;0.40;;
11037;SDS011;5572;49.540;11.932;2024-02-04T09:44:02;0.30;;;0.30;;
11037;SDS011;5572;49.540;11.932;2024-02-04T09:46:35;0.50;;;0.50;;
11037;SDS011;5572;49.540;11.932;2024-02-04T09:49:03;0.40;;;0.40;;
11037;SDS011;5572;49.540;11.932;2024-02-04T09:54:21;0.63;;;0.63;;
11037;SDS011;5572;49.540;11.932;2024-02-04T09:56:51;0.50;;;0.50;;
11037;SDS011;5572;49.540;11.932;2024-02-04T09:59:20;0.40;;;0.40;;
11037;SDS011;5572;49.540;11.932;2024-02-04T10:01:49;1.17;;;0.80;;
11037;SDS011;5572;49.540;11.932;2024-02-04T10:04:19;0.50;;;0.50;;
11037;SDS011;5572;49.540;11.932;2024-02-04T10:06:48;0.70;;;0.70;;
11037;SDS011;5572;49.540;11.932;2024-02-04T10:09:17;0.80;;;0.80;;
11037;SDS011;5572;49.540;11.932;2024-02-04T10:11:45;0.70;;;0.70;;
11037;SDS011;5572;49.540;11.932;2024-02-04T10:14:15;0.80;;;0.80;;
11037;SDS011;5572;49.540;11.932;2024-02-04T10:16:44;0.60;;;0.60;;
11037;SDS011;5572;49.540;11.932;2024-02-04T10:19:12;0.77;;;0.77;;
11037;SDS011;5572;49.540;11.932;2024-02-04T10:21:43;0.90;;;0.90;;
11037;SDS011;5572;49.540;11.932;2024-02-04T10:24:11;0.77;;;0.77;;
11037;SDS011;5572;49.540;11.932;2024-02-04T10:26:41;0.70;;;0.70;;
11037;SDS011;5572;49.540;11.932;2024-02-04T10:29:11;0.80;;;0.80;;
11037;SDS011;5572;49.540;11.932;2024-02-04T10:31:39;0.90;;;0.90;;
11037;SDS011;5572;49.540;11.932;2024-02-04T10:34:08;0.80;;;0.80;;
11037;SDS011;5572;49.540;11.932;2024-02-04T10:36:37;0.70;;;0.70;;
11037;SDS011;5572;49.540;11.932;2024-02-04T10:39:06;1.00;;;1.00;;
11037;SDS011;5572;49.540;11.932;2024-02-04T10:41:34;0.60;;;0.60;;
11037;SDS011;5572;49.540;11.932;2024-02-04T10:44:27;0.90;;;0.90;;
11037;SDS011;5572;49.540;11.932;2024-02-04T10:46:59;0.70;;;0.70;;
11037;SDS011;5572;49.540;11.932;2024-02-04T10:49:32;0.67;;;0.67;;
11037;SDS011;5572;49.540;11.932;2024-02-04T10:52:06;0.80;;;0.80;;
11037;SDS011;5572;49.540;11.932;2024-02-04T10:54:35;0.90;;;0.90;;
11037;SDS011;5572;49.540;11.932;2024-02-04T10:57:05;0.87;;;0.87;;
11037;SDS011;5572;49.540;11.932;2024-02-04T10:59:44;0.93;;;0.93;;
11037;SDS011;5572;49.540;11.932;2024-02-04T11:02:15;0.80;;;0.80;;
11037;SDS011;5572;49.540;11.932;2024-02-04T11:04:44;0.50;;;0.50;;
11037;SDS011;5572;49.540;11.932;2024-02-04T11:07:16;0.50;;;0.50;;
11037;SDS011;5572;49.540;11.932;2024-02-04T11:09:46;0.73;;;0.73;;
11037;SDS011;5572;49.540;11.932;2024-02-04T11:12:16;1.37;;;1.33;;
11037;SDS011;5572;49.540;11.932;2024-02-04T11:14:50;1.00;;;1.00;;
11037;SDS011;5572;49.540;11.932;2024-02-04T11:17:42;1.50;;;1.43;;
11037;SDS011;5572;49.540;11.932;2024-02-04T11:20:37;1.30;;;1.30;;
11037;SDS011;5572;49.540;11.932;2024-02-04T11:23:30;1.33;;;1.23;;
11037;SDS011;5572;49.540;11.932;2024-02-04T11:26:09;0.87;;;0.87;;
11037;SDS011;5572;49.540;11.932;2024-02-04T11:28:39;0.70;;;0.70;;
11037;SDS011;5572;49.540;11.932;2024-02-04T11:31:15;0.90;;;0.90;;
11037;SDS011;5572;49.540;11.932;2024-02-04T11:33:45;0.90;;;0.90;;
11037;SDS011;5572;49.540;11.932;2024-02-04T11:36:14;1.10;;;1.10;;
11037;SDS011;5572;49.540;11.932;2024-02-04T11:38:48;0.70;;;0.70;;
11037;SDS011;5572;49.540;11.932;2024-02-04T11:41:21;0.70;;;0.70;;
11037;SDS011;5572;49.540;11.932;2024-02-04T11:43:52;1.40;;;0.93;;
11037;SDS011;5572;49.540;11.932;2024-02-04T11:46:36;0.60;;;0.60;;
11037;SDS011;5572;49.540;11.932;2024-02-04T11:49:15;0.70;;;0.70;;
11037;SDS011;5572;49.540;11.932;2024-02-04T11:51:45;0.70;;;0.70;;
11037;SDS011;5572;49.540;11.932;2024-02-04T11:54:15;0.90;;;0.90;;
11037;SDS011;5572;49.540;11.932;2024-02-04T11:56:45;5.63;;;1.23;;
11037;SDS011;5572;49.540;11.932;2024-02-04T11:59:22;0.70;;;0.70;;
11037;SDS011;5572;49.540;11.932;2024-02-04T12:01:56;0.80;;;0.80;;
11037;SDS011;5572;49.540;11.932;2024-02-04T12:04:27;0.80;;;0.80;;
11037;SDS011;5572;49.540;11.932;2024-02-04T12:06:56;0.80;;;0.80;;
11037;SDS011;5572;49.540;11.932;2024-02-04T12:09:26;0.70;;;0.70;;
11037;SDS011;5572;49.540;11.932;2024-02-04T12:11:57;0.90;;;0.90;;
11037;SDS011;5572;49.540;11.932;2024-02-04T12:14:25;1.00;;;1.00;;
11037;SDS011;5572;49.540;11.932;2024-02-04T12:16:58;0.97;;;0.97;;
11037;SDS011;5572;49.540;11.932;2024-02-04T12:19:35;1.10;;;1.10;;
11037;SDS011;5572;49.540;11.932;2024-02-04T12:22:04;1.40;;;1.40;;
11037;SDS011;5572;49.540;11.932;2024-02-04T12:24:35;1.00;;;1.00;;
11037;SDS011;5572;49.540;11.932;2024-02-04T12:27:04;1.00;;;1.00;;
11037;SDS011;5572;49.540;11.932;2024-02-04T12:29:33;1.00;;;1.00;;
11037;SDS011;5572;49.540;11.932;2024-02-04T12:32:04;0.70;;;0.70;;
11037;SDS011;5572;49.540;11.932;2024-02-04T12:34:33;0.63;;;0.63;;
11037;SDS011;5572;49.540;11.932;2024-02-04T12:37:08;0.80;;;0.80;;
11037;SDS011;5572;49.540;11.932;2024-02-04T12:39:38;0.67;;;0.67;;
11037;SDS011;5572;49.540;11.932;2024-02-04T12:42:09;1.03;;;1.03;;
11037;SDS011;5572;49.540;11.932;2024-02-04T12:44:36;0.87;;;0.87;;
11037;SDS011;5572;49.540;11.932;2024-02-04T12:47:09;1.37;;;1.27;;
11037;SDS011;5572;49.540;11.932;2024-02-04T12:49:40;1.60;;;1.27;;
11037;SDS011;5572;49.540;11.932;2024-02-04T12:52:12;1.00;;;1.00;;
11037;SDS011;5572;49.540;11.932;2024-02-04T12:54:41;1.30;;;1.30;;
11037;SDS011;5572;49.540;11.932;2024-02-04T12:57:21;1.17;;;1.17;;
11037;SDS011;5572;49.540;11.932;2024-02-04T12:59:50;1.30;;;1.30;;
11037;SDS011;5572;49.540;11.932;2024-02-04T13:02:23;1.00;;;1.00;;
11037;SDS011;5572;49.540;11.932;2024-02-04T13:04:52;1.13;;;1.13;;
11037;SDS011;5572;49.540;11.932;2024-02-04T13:07:21;1.00;;;1.00;;
11037;SDS011;5572;49.540;11.932;2024-02-04T13:09:57;1.00;;;1.00;;
11037;SDS011;5572;49.540;11.932;2024-02-04T13:12:26;1.30;;;1.30;;
11037;SDS011;5572;49.540;11.932;2024-02-04T13:14:56;1.17;;;1.17;;
11037;SDS011;5572;49.540;11.932;2024-02-04T13:17:27;1.07;;;1.07;;
11037;SDS011;5572;49.540;11.932;2024-02-04T13:19:55;1.20;;;1.20;;
11037;SDS011;5572;49.540;11.932;2024-02-04T13:22:21;1.13;;;1.13;;
11037;SDS011;5572;49.540;11.932;2024-02-04T13:24:50;1.20;;;1.20;;
11037;SDS011;5572;49.540;11.932;2024-02-04T13:27:18;1.00;;;1.00;;
11037;SDS011;5572;49.540;11.932;2024-02-04T13:29:45;1.07;;;1.07;;
11037;SDS011;5572;49.540;11.932;2024-02-04T13:32:15;1.10;;;1.10;;
11037;SDS011;5572;49.540;11.932;2024-02-04T13:34:45;1.20;;;1.20;;
11037;SDS011;5572;49.540;11.932;2024-02-04T13:37:14;1.50;;;1.50;;
11037;SDS011;5572;49.540;11.932;2024-02-04T13:39:43;1.00;;;1.00;;
11037;SDS011;5572;49.540;11.932;2024-02-04T13:42:11;1.20;;;1.20;;
11037;SDS011;5572;49.540;11.932;2024-02-04T13:44:38;1.20;;;1.20;;
11037;SDS011;5572;49.540;11.932;2024-02-04T13:47:22;1.30;;;1.30;;
11037;SDS011;5572;49.540;11.932;2024-02-04T13:49:52;1.30;;;1.30;;
11037;SDS011;5572;49.540;11.932;2024-02-04T13:52:21;1.00;;;1.00;;
11037;SDS011;5572;49.540;11.932;2024-02-04T13:54:49;1.10;;;1.10;;
11037;SDS011;5572;49.540;11.932;2024-02-04T13:57:18;1.20;;;1.20;;
11037;SDS011;5572;49.540;11.932;2024-02-04T13:59:47;1.30;;;1.30;;
11037;SDS011;5572;49.540;11.932;2024-02-04T14:02:15;1.10;;;1.10;;
11037;SDS011;5572;49.540;11.932;2024-02-04T14:04:44;1.20;;;1.20;;
11037;SDS011;5572;49.540;11.932;2024-02-04T14:07:13;1.13;;;1.13;;
11037;SDS011;5572;49.540;11.932;2024-02-04T14:09:41;1.30;;;1.30;;
11037;SDS011;5572;49.540;11.932;2024-02-04T14:12:10;1.80;;;1.70;;
11037;SDS011;5572;49.540;11.932;2024-02-04T14:14:38;1.07;;;1.07;;
11037;SDS011;5572;49.540;11.932;2024-02-04T14:17:07;1.10;;;1.10;;
11037;SDS011;5572;49.540;11.932;2024-02-04T14:19:39;1.20;;;1.20;;
11037;SDS011;5572;49.540;11.932;2024-02-04T14:22:07;1.10;;;1.10;;
11037;SDS011;5572;49.540;11.932;2024-02-04T14:24:38;1.10;;;1.10;;
11037;SDS011;5572;49.540;11.932;2024-02-04T14:27:06;1.73;;;1.33;;
11037;SDS011;5572;49.540;11.932;2024-02-04T14:29:35;1.13;;;1.13;;
11037;SDS011;5572;49.540;11.932;2024-02-04T14:32:03;1.10;;;1.10;;
11037;SDS011;5572;49.540;11.932;2024-02-04T14:34:32;1.20;;;1.20;;
11037;SDS011;5572;49.540;11.932;2024-02-04T14:37:01;1.10;;;1.10;;
11037;SDS011;5572;49.540;11.932;2024-02-04T14:39:32;1.20;;;1.20;;
11037;SDS011;5572;49.540;11.932;2024-02-04T14:42:03;1.10;;;1.10;;
11037;SDS011;5572;49.540;11.932;2024-02-04T14:44:31;1.20;;;1.20;;
11037;SDS011;5572;49.540;11.932;2024-02-04T14:47:01;1.30;;;1.30;;
11037;SDS011;5572;49.540;11.932;2024-02-04T14:49:29;1.37;;;1.37;;
11037;SDS011;5572;49.540;11.932;2024-02-04T14:51:59;1.60;;;1.60;;
11037;SDS011;5572;49.540;11.932;2024-02-04T14:54:27;1.00;;;1.00;;
11037;SDS011;5572;49.540;11.932;2024-02-04T14:56:54;2.43;;;1.80;;
11037;SDS011;5572;49.540;11.932;2024-02-04T14:59:24;1.00;;;1.00;;
11037;SDS011;5572;49.540;11.932;2024-02-04T15:01:52;1.10;;;1.10;;
11037;SDS011;5572;49.540;11.932;2024-02-04T15:04:19;1.00;;;1.00;;
11037;SDS011;5572;49.540;11.932;2024-02-04T15:06:47;1.00;;;1.00;;
11037;SDS011;5572;49.540;11.932;2024-02-04T15:09:14;1.10;;;1.10;;
11037;SDS011;5572;49.540;11.932;2024-02-04T15:11:42;0.90;;;0.90;;
11037;SDS011;5572;49.540;11.932;2024-02-04T15:14:11;1.10;;;1.10;;
11037;SDS011;5572;49.540;11.932;2024-02-04T15:16:41;0.90;;;0.90;;
11037;SDS011;5572;49.540;11.932;2024-02-04T15:37:20;2.13;;;1.93;;
11037;SDS011;5572;49.540;11.932;2024-02-04T15:39:49;1.97;;;1.87;;
11037;SDS011;5572;49.540;11.932;2024-02-04T15:42:18;1.47;;;1.37;;
11037;SDS011;5572;49.540;11.932;2024-02-04T15:44:46;1.20;;;1.20;;
11037;SDS011;5572;49.540;11.932;2024-02-04T15:47:14;1.20;;;1.20;;
11037;SDS011;5572;49.540;11.932;2024-02-04T15:52:22;1.03;;;1.03;;
11037;SDS011;5572;49.540;11.932;2024-02-04T15:54:51;1.00;;;1.00;;
11037;SDS011;5572;49.540;11.932;2024-02-04T15:57:20;1.00;;;1.00;;
11037;SDS011;5572;49.540;11.932;2024-02-04T15:59:56;1.10;;;1.10;;
11037;SDS011;5572;49.540;11.932;2024-02-04T16:02:54;1.00;;;1.00;;
11037;SDS011;5572;49.540;11.932;2024-02-04T16:05:24;1.30;;;1.30;;
11037;SDS011;5572;49.540;11.932;2024-02-04T16:29:28;1.20;;;1.20;;
11037;SDS011;5572;49.540;11.932;2024-02-04T17:00:39;0.80;;;0.80;;
11037;SDS011;5572;49.540;11.932;2024-02-04T17:03:09;0.77;;;0.77;;
11037;SDS011;5572;49.540;11.932;2024-02-04T17:05:40;0.80;;;0.80;;
11037;SDS011;5572;49.540;11.932;2024-02-04T17:08:10;0.60;;;0.60;;
11037;SDS011;5572;49.540;11.932;2024-02-04T17:10:40;0.73;;;0.73;;
11037;SDS011;5572;49.540;11.932;2024-02-04T17:13:09;1.20;;;1.20;;
11037;SDS011;5572;49.540;11.932;2024-02-04T17:15:40;1.03;;;1.03;;
11037;SDS011;5572;49.540;11.932;2024-02-04T17:18:08;0.90;;;0.90;;
11037;SDS011;5572;49.540;11.932;2024-02-04T17:20:41;1.20;;;1.20;;
11037;SDS011;5572;49.540;11.932;2024-02-04T17:23:20;1.13;;;1.13;;
11037;SDS011;5572;49.540;11.932;2024-02-04T17:25:54;0.80;;;0.80;;
11037;SDS011;5572;49.540;11.932;2024-02-04T17:28:26;1.40;;;1.40;;
11037;SDS011;5572;49.540;11.932;2024-02-04T17:30:55;1.33;;;1.33;;
11037;SDS011;5572;49.540;11.932;2024-02-04T17:33:23;1.00;;;1.00;;
11037;SDS011;5572;49.540;11.932;2024-02-04T17:35:50;0.97;;;0.97;;
11037;SDS011;5572;49.540;11.932;2024-02-04T17:38:18;0.93;;;0.93;;
11037;SDS011;5572;49.540;11.932;2024-02-04T17:40:44;1.20;;;1.20;;
11037;SDS011;5572;49.540;11.932;2024-02-04T17:43:12;1.47;;;1.47;;
11037;SDS011;5572;49.540;11.932;2024-02-04T17:45:38;0.80;;;0.80;;
11037;SDS011;5572;49.540;11.932;2024-02-04T17:48:07;1.10;;;1.10;;
11037;SDS011;5572;49.540;11.932;2024-02-04T17:50:35;1.50;;;1.10;;
11037;SDS011;5572;49.540;11.932;2024-02-04T17:53:01;0.90;;;0.90;;
11037;SDS011;5572;49.540;11.932;2024-02-04T17:55:30;1.20;;;1.20;;
11037;SDS011;5572;49.540;11.932;2024-02-04T18:05:39;1.60;;;1.60;;
11037;SDS011;5572;49.540;11.932;2024-02-04T18:08:08;1.13;;;1.13;;
11037;SDS011;5572;49.540;11.932;2024-02-04T18:10:35;1.20;;;1.20;;
11037;SDS011;5572;49.540;11.932;2024-02-04T18:13:02;1.13;;;1.13;;
11037;SDS011;5572;49.540;11.932;2024-02-04T18:15:30;0.90;;;0.90;;
11037;SDS011;5572;49.540;11.932;2024-02-04T19:07:06;2.13;;;2.03;;
11037;SDS011;5572;49.540;11.932;2024-02-04T19:09:33;7.97;;;3.43;;
11037;SDS011;5572;49.540;11.932;2024-02-04T19:12:00;1.30;;;1.30;;
11037;SDS011;5572;49.540;11.932;2024-02-04T19:14:27;1.40;;;1.40;;
11037;SDS011;5572;49.540;11.932;2024-02-04T19:16:54;1.10;;;1.10;;
11037;SDS011;5572;49.540;11.932;2024-02-04T19:19:20;1.40;;;1.40;;
11037;SDS011;5572;49.540;11.932;2024-02-04T19:21:47;1.67;;;1.57;;
11037;SDS011;5572;49.540;11.932;2024-02-04T19:24:16;1.30;;;1.30;;
11037;SDS011;5572;49.540;11.932;2024-02-04T19:26:43;1.23;;;1.23;;
11037;SDS011;5572;49.540;11.932;2024-02-04T19:38:08;1.17;;;1.17;;
11037;SDS011;5572;49.540;11.932;2024-02-04T21:11:54;1.50;;;1.50;;
11037;SDS011;5572;49.540;11.932;2024-02-04T21:14:23;1.50;;;1.50;;
11037;SDS011;5572;49.540;11.932;2024-02-04T21:16:51;1.67;;;1.67;;
11037;SDS011;5572;49.540;11.932;2024-02-04T21:21:54;1.53;;;1.53;;
11037;SDS011;5572;49.540;11.932;2024-02-04T21:24:26;1.80;;;1.80;;
11037;SDS011;5572;49.540;11.932;2024-02-04T21:26:57;1.60;;;1.60;;
11037;SDS011;5572;49.540;11.932;2024-02-04T21:29:28;1.60;;;1.60;;
11037;SDS011;5572;49.540;11.932;2024-02-04T21:31:56;1.67;;;1.67;;
11037;SDS011;5572;49.540;11.932;2024-02-04T21:34:23;1.90;;;1.80;;
11037;SDS011;5572;49.540;11.932;2024-02-04T21:36:52;1.60;;;1.60;;
